createdAt,value
2019-05-10T00:01:09.989Z,99850.94
2019-05-10T00:04:01.094Z,99849.88
2019-05-10T00:06:52.026Z,99843.25
2019-05-10T00:09:24.756Z,99842.80
2019-05-10T00:11:59.826Z,99848.11
2019-05-10T00:14:34.866Z,99836.73
2019-05-10T00:17:09.925Z,99840.13
2019-05-10T00:19:43.311Z,99843.75
2019-05-10T00:22:16.799Z,99843.30
2019-05-10T00:25:02.838Z,99847.77
2019-05-10T00:27:25.414Z,99850.00
2019-05-10T00:29:58.816Z,99857.88
2019-05-10T00:32:32.228Z,99851.39
2019-05-10T00:35:07.080Z,99854.98
2019-05-10T00:37:40.481Z,99855.95
2019-05-10T00:40:14.123Z,99856.33
2019-05-10T00:42:47.545Z,99857.81
2019-05-10T00:45:20.945Z,99856.45
2019-05-10T00:47:54.411Z,99857.19
2019-05-10T00:50:27.810Z,99857.61
2019-05-10T00:53:01.220Z,99860.58
2019-05-10T00:55:34.613Z,99856.06
2019-05-10T00:58:08.018Z,99859.08
2019-05-10T01:00:41.516Z,99852.94
2019-05-10T01:03:14.914Z,99861.24
2019-05-10T01:05:48.336Z,99866.33
2019-05-10T01:08:21.755Z,99859.82
2019-05-10T01:10:55.164Z,99875.08
2019-05-10T01:13:28.563Z,99872.90
2019-05-10T01:16:01.979Z,99867.64
2019-05-10T01:18:35.420Z,99871.87
2019-05-10T01:21:08.835Z,99875.81
2019-05-10T01:23:42.261Z,99887.64
2019-05-10T01:26:15.669Z,99889.89
2019-05-10T01:28:49.088Z,99894.39
2019-05-10T01:31:22.614Z,99897.45
2019-05-10T01:33:56.026Z,99898.72
2019-05-10T01:36:29.443Z,99900.63
2019-05-10T01:39:03.037Z,99898.95
2019-05-10T01:41:36.422Z,99901.65
2019-05-10T01:44:09.845Z,99901.65
2019-05-10T01:46:43.274Z,99903.83
2019-05-10T01:49:16.676Z,99908.41
2019-05-10T01:51:50.104Z,99906.77
2019-05-10T01:54:23.602Z,99909.95
2019-05-10T01:56:56.979Z,99907.34
2019-05-10T01:59:30.403Z,99911.39
2019-05-10T02:02:03.884Z,99907.45
2019-05-10T02:04:37.381Z,99910.33
2019-05-10T02:07:10.831Z,99915.11
2019-05-10T02:09:44.210Z,99918.72
2019-05-10T02:12:17.609Z,99926.61
2019-05-10T02:14:51.015Z,99925.09
2019-05-10T02:17:24.545Z,99929.62
2019-05-10T02:19:57.964Z,99926.81
2019-05-10T02:22:31.383Z,99932.81
2019-05-10T02:25:05.960Z,99941.28
2019-05-10T02:27:39.358Z,99946.63
2019-05-10T02:30:12.899Z,99953.97
2019-05-10T02:32:46.342Z,99950.41
2019-05-10T02:35:20.184Z,99951.73
2019-05-10T02:37:53.709Z,99952.12
2019-05-10T02:40:27.073Z,99949.04
2019-05-10T02:43:00.488Z,99950.41
2019-05-10T02:45:33.922Z,99953.53
2019-05-10T02:48:07.447Z,99949.64
2019-05-10T02:50:40.867Z,99957.41
2019-05-10T02:53:14.953Z,99955.72
2019-05-10T02:55:49.314Z,99965.38
2019-05-10T02:58:23.129Z,99961.88
2019-05-10T03:00:59.573Z,99959.37
2019-05-10T03:03:33.397Z,99968.66
2019-05-10T03:06:06.812Z,99963.66
2019-05-10T03:08:51.376Z,99965.61
2019-05-10T03:11:27.853Z,99974.83
2019-05-10T03:14:04.301Z,99975.08
2019-05-10T03:16:39.570Z,99976.58
2019-05-10T03:19:14.507Z,99974.59
2019-05-10T03:21:53.512Z,99977.39
2019-05-10T03:24:27.829Z,99984.13
2019-05-10T03:27:01.565Z,99985.31
2019-05-10T03:29:35.001Z,99987.97
2019-05-10T03:32:08.565Z,100001.11
2019-05-10T03:34:41.993Z,99997.92
2019-05-10T03:37:15.657Z,100000.41
2019-05-10T03:39:49.196Z,99998.48
2019-05-10T03:42:22.659Z,100002.77
2019-05-10T03:44:56.067Z,100002.77
2019-05-10T03:47:29.534Z,100001.89
2019-05-10T03:50:03.504Z,100005.83
2019-05-10T03:52:36.987Z,100008.53
2019-05-10T03:55:11.546Z,100009.80
2019-05-10T03:57:44.957Z,100012.90
2019-05-10T04:00:18.533Z,100009.37
2019-05-10T04:02:52.082Z,100017.22
2019-05-10T04:05:25.504Z,100013.67
2019-05-10T04:07:58.922Z,100017.52
2019-05-10T04:10:32.333Z,100019.70
2019-05-10T04:13:05.760Z,100019.27
2019-05-10T04:15:39.156Z,100024.47
2019-05-10T04:18:12.590Z,100031.94
2019-05-10T04:20:45.986Z,100029.70
2019-05-10T04:23:19.388Z,100029.66
2019-05-10T04:25:52.797Z,100036.64
2019-05-10T04:28:26.193Z,100038.78
2019-05-10T04:30:59.616Z,100040.44
2019-05-10T04:33:33.008Z,100042.97
2019-05-10T04:36:11.351Z,100049.53
2019-05-10T04:38:41.628Z,100038.80
2019-05-10T04:41:15.088Z,100054.55
2019-05-10T04:43:48.502Z,100051.58
2019-05-10T04:46:21.954Z,100056.47
2019-05-10T04:48:55.369Z,100053.91
2019-05-10T04:51:28.822Z,100065.64
2019-05-10T04:54:02.239Z,100065.59
2019-05-10T04:56:35.642Z,100066.83
2019-05-10T04:59:09.036Z,100067.44
2019-05-10T05:01:42.430Z,100072.71
2019-05-10T05:04:15.851Z,100070.53
2019-05-10T05:06:49.264Z,100067.09
2019-05-10T05:09:22.688Z,100066.20
2019-05-10T05:11:56.084Z,100073.21
2019-05-10T05:14:29.503Z,100073.21
2019-05-10T05:17:02.963Z,100079.34
2019-05-10T05:19:36.407Z,100086.36
2019-05-10T05:22:09.802Z,100087.22
2019-05-10T05:24:43.207Z,100099.93
2019-05-10T05:27:16.627Z,100097.97
2019-05-10T05:29:50.046Z,100100.11
2019-05-10T05:32:23.505Z,100106.83
2019-05-10T05:34:56.915Z,100105.78
2019-05-10T05:37:30.324Z,100105.88
2019-05-10T05:40:05.196Z,100114.17
2019-05-10T05:42:38.606Z,100110.12
2019-05-10T05:45:12.340Z,100115.96
2019-05-10T05:47:45.742Z,100120.98
2019-05-10T05:50:19.284Z,100120.63
2019-05-10T05:52:52.654Z,100125.47
2019-05-10T05:55:30.733Z,100129.64
2019-05-10T05:58:04.764Z,100138.94
2019-05-10T06:00:44.070Z,100135.36
2019-05-10T06:03:11.472Z,100133.08
2019-05-10T06:05:44.875Z,100137.66
2019-05-10T06:08:22.939Z,100141.50
2019-05-10T06:10:57.579Z,100139.55
2019-05-10T06:13:30.488Z,100135.91
2019-05-10T06:16:06.238Z,100136.78
2019-05-10T06:18:41.772Z,100131.10
2019-05-10T06:21:18.064Z,100128.96
2019-05-10T06:23:49.159Z,100132.15
2019-05-10T06:26:28.350Z,100136.66
2019-05-10T06:29:03.499Z,100134.32
2019-05-10T06:31:32.844Z,100143.35
2019-05-10T06:34:06.324Z,100148.81
2019-05-10T06:36:39.878Z,100148.44
2019-05-10T06:39:13.258Z,100142.86
2019-05-10T06:41:49.894Z,100143.34
2019-05-10T06:44:24.921Z,100142.06
2019-05-10T06:47:02.197Z,100140.73
2019-05-10T06:49:32.105Z,100136.66
2019-05-10T06:52:05.540Z,100136.66
2019-05-10T06:54:38.936Z,100132.55
2019-05-10T06:57:17.647Z,100134.06
2019-05-10T06:59:47.511Z,100134.65
2019-05-10T07:02:26.830Z,100134.69
2019-05-10T07:04:56.158Z,100136.84
2019-05-10T07:07:43.326Z,100129.16
2019-05-10T07:10:17.966Z,100133.58
2019-05-10T07:12:42.061Z,100136.66
2019-05-10T07:15:15.729Z,100139.80
2019-05-10T07:17:49.161Z,100155.87
2019-05-10T07:20:23.612Z,100156.88
2019-05-10T07:23:00.027Z,100153.06
2019-05-10T07:25:37.788Z,100163.52
2019-05-10T07:28:09.504Z,100168.06
2019-05-10T07:30:43.296Z,100169.59
2019-05-10T07:33:16.702Z,100164.06
2019-05-10T07:35:50.245Z,100168.67
2019-05-10T07:38:31.022Z,100167.17
2019-05-10T07:40:59.582Z,100165.48
2019-05-10T07:43:33.004Z,100170.30
2019-05-10T07:46:06.985Z,100173.52
2019-05-10T07:48:46.981Z,100179.36
2019-05-10T07:51:16.748Z,100180.30
2019-05-10T07:53:50.345Z,100183.78
2019-05-10T07:56:23.784Z,100184.11
2019-05-10T07:59:00.471Z,100179.69
2019-05-10T08:01:34.838Z,100183.03
2019-05-10T08:04:08.996Z,100185.55
2019-05-10T08:06:47.563Z,100190.07
2019-05-10T08:09:19.206Z,100188.91
2019-05-10T08:11:53.948Z,100190.61
2019-05-10T08:14:29.026Z,100194.63
2019-05-10T08:17:06.167Z,100193.05
2019-05-10T08:19:39.037Z,100204.61
2019-05-10T08:22:14.744Z,100199.56
2019-05-10T08:24:52.880Z,100201.36
2019-05-10T08:27:23.064Z,100201.78
2019-05-10T08:30:17.795Z,100204.36
2019-05-10T08:32:34.623Z,100204.30
2019-05-10T08:35:16.266Z,100205.89
2019-05-10T08:37:43.574Z,100201.93
2019-05-10T08:40:19.846Z,100208.40
2019-05-10T08:43:02.845Z,100205.66
2019-05-10T08:45:27.352Z,100205.66
2019-05-10T08:48:06.903Z,100199.34
2019-05-10T08:50:49.714Z,100199.34
2019-05-10T08:53:16.127Z,100188.77
2019-05-10T08:55:46.186Z,100199.61
2019-05-10T08:58:24.451Z,100196.26
2019-05-10T09:01:15.511Z,100196.26
2019-05-10T09:03:32.096Z,100190.72
2019-05-10T09:06:11.815Z,100195.41
2019-05-10T09:08:40.327Z,100198.98
2019-05-10T09:11:16.242Z,100205.70
2019-05-10T09:13:48.869Z,100210.89
2019-05-10T09:16:23.736Z,100216.64
2019-05-10T09:18:57.272Z,100212.95
2019-05-10T09:21:32.192Z,100219.28
2019-05-10T09:24:06.674Z,100223.72
2019-05-10T09:26:41.823Z,100221.72
2019-05-10T09:29:15.380Z,100214.06
2019-05-10T09:31:50.603Z,100209.23
2019-05-10T09:34:27.132Z,100228.39
2019-05-10T09:36:59.037Z,100219.61
2019-05-10T09:39:33.018Z,100216.95
2019-05-10T09:42:09.963Z,100215.47
2019-05-10T09:44:45.589Z,100206.30
2019-05-10T09:47:16.889Z,100212.31
2019-05-10T09:49:56.442Z,100211.81
2019-05-10T09:52:25.412Z,100206.31
2019-05-10T09:54:58.838Z,100217.47
2019-05-10T09:57:32.442Z,100220.66
2019-05-10T10:00:07.633Z,100222.44
2019-05-10T10:02:47.737Z,100214.55
2019-05-10T10:05:17.959Z,100219.63
2019-05-10T10:07:51.405Z,100213.80
2019-05-10T10:10:30.160Z,100216.81
2019-05-10T10:13:08.505Z,100209.71
2019-05-10T10:15:37.259Z,100217.97
2019-05-10T10:18:12.471Z,100215.51
2019-05-10T10:20:48.119Z,100227.19
2019-05-10T10:23:24.597Z,100222.89
2019-05-10T10:25:57.997Z,100224.40
2019-05-10T10:28:31.551Z,100217.31
2019-05-10T10:31:05.524Z,100218.05
2019-05-10T10:33:42.768Z,100215.73
2019-05-10T10:36:14.601Z,100167.41
2019-05-10T10:38:49.674Z,100204.43
2019-05-10T10:41:31.301Z,100211.16
2019-05-10T10:43:58.545Z,100217.03
2019-05-10T10:46:34.532Z,100204.52
2019-05-10T10:49:07.036Z,100209.22
2019-05-10T10:51:40.489Z,100210.56
2019-05-10T10:54:13.886Z,100205.43
2019-05-10T10:56:48.222Z,100206.64
2019-05-10T10:59:21.755Z,100204.38
2019-05-10T11:02:25.259Z,100196.44
2019-05-10T11:04:30.317Z,100186.63
2019-05-10T11:07:10.320Z,100185.67
2019-05-10T11:09:41.016Z,100183.53
2019-05-10T11:12:14.801Z,100194.02
2019-05-10T11:14:49.210Z,100188.63
2019-05-10T11:17:22.656Z,100190.23
2019-05-10T11:19:56.099Z,100179.59
2019-05-10T11:22:31.655Z,100178.86
2019-05-10T11:25:09.737Z,100183.33
2019-05-10T11:27:41.546Z,100183.49
2019-05-10T11:30:15.885Z,100175.41
2019-05-10T11:32:49.309Z,100170.09
2019-05-10T11:35:28.435Z,100177.86
2019-05-10T11:37:57.929Z,100173.63
2019-05-10T11:40:34.883Z,100171.02
2019-05-10T11:43:06.487Z,100172.10
2019-05-10T11:45:43.629Z,100176.41
2019-05-10T11:48:15.044Z,100176.09
2019-05-10T11:50:51.089Z,100177.33
2019-05-10T11:53:24.116Z,100184.83
2019-05-10T11:55:57.591Z,100179.75
2019-05-10T11:58:31.266Z,100168.81
2019-05-10T12:01:14.850Z,100163.81
2019-05-10T12:03:42.468Z,100163.12
2019-05-10T12:06:15.230Z,100160.55
2019-05-10T12:08:52.296Z,100166.48
2019-05-10T12:11:32.980Z,100168.84
2019-05-10T12:14:02.131Z,100173.36
2019-05-10T12:16:34.113Z,100154.92
2019-05-10T12:19:19.597Z,100165.94
2019-05-10T12:21:42.672Z,100158.30
2019-05-10T12:24:38.986Z,100167.44
2019-05-10T12:27:17.263Z,100165.80
2019-05-10T12:29:26.361Z,100146.46
2019-05-10T12:31:59.769Z,100142.86
2019-05-10T12:34:33.195Z,100149.48
2019-05-10T12:37:08.385Z,100147.84
2019-05-10T12:39:41.917Z,100158.36
2019-05-10T12:42:15.312Z,100165.50
2019-05-10T12:44:48.737Z,100153.63
2019-05-10T12:47:22.132Z,100153.38
2019-05-10T12:50:02.155Z,100147.34
2019-05-10T12:52:32.069Z,100146.80
2019-05-10T12:55:07.633Z,100149.48
2019-05-10T12:57:43.330Z,100152.64
2019-05-10T13:00:16.827Z,100146.44
2019-05-10T13:02:51.884Z,100146.40
2019-05-10T13:05:32.320Z,100153.54
2019-05-10T13:08:00.533Z,100164.27
2019-05-10T13:10:37.232Z,100160.50
2019-05-10T13:13:09.361Z,100161.97
2019-05-10T13:15:42.770Z,100173.34
2019-05-10T13:18:16.213Z,100162.75
2019-05-10T13:20:49.607Z,100164.00
2019-05-10T13:23:23.007Z,100175.42
2019-05-10T13:25:56.448Z,100174.98
2019-05-10T13:28:29.836Z,100171.13
2019-05-10T13:31:05.669Z,100172.09
2019-05-10T13:33:41.870Z,100164.78
2019-05-10T13:36:13.632Z,100169.21
2019-05-10T13:38:49.153Z,100159.78
2019-05-10T13:41:23.934Z,100156.25
2019-05-10T13:43:58.767Z,100159.86
2019-05-10T13:46:32.470Z,100175.38
2019-05-10T13:49:05.887Z,100166.34
2019-05-10T13:51:39.345Z,100166.39
2019-05-10T13:54:12.752Z,100163.38
2019-05-10T13:56:52.373Z,100165.30
2019-05-10T13:59:21.310Z,100172.80
2019-05-10T14:01:54.748Z,100170.92
2019-05-10T14:04:28.162Z,100169.01
2019-05-10T14:07:01.590Z,100162.97
2019-05-10T14:09:35.072Z,100153.39
2019-05-10T14:12:08.500Z,100154.22
2019-05-10T14:14:41.958Z,100155.36
2019-05-10T14:17:15.405Z,100148.66
2019-05-10T14:19:48.810Z,100154.03
2019-05-10T14:22:22.227Z,100154.62
2019-05-10T14:24:58.868Z,100161.96
2019-05-10T14:27:35.926Z,100153.42
2019-05-10T14:30:13.758Z,100157.31
2019-05-10T14:32:44.254Z,100152.64
2019-05-10T14:35:22.658Z,100156.65
2019-05-10T14:37:52.828Z,100161.85
2019-05-10T14:40:30.398Z,100163.16
2019-05-10T14:43:01.494Z,100159.67
2019-05-10T14:45:34.895Z,100162.84
2019-05-10T14:48:08.318Z,100162.63
2019-05-10T14:50:46.259Z,100158.19
2019-05-10T14:53:20.039Z,100164.28
2019-05-10T14:55:52.517Z,100164.24
2019-05-10T14:58:25.939Z,100162.22
2019-05-10T15:00:59.375Z,100162.72
2019-05-10T15:03:35.332Z,100157.55
2019-05-10T15:06:07.970Z,100160.14
2019-05-10T15:08:46.175Z,100151.84
2019-05-10T15:11:19.574Z,100149.34
2019-05-10T15:13:55.618Z,100150.06
2019-05-10T15:16:30.838Z,100162.03
2019-05-10T15:19:04.246Z,100169.45
2019-05-10T15:21:37.673Z,100172.96
2019-05-10T15:24:11.494Z,100173.44
2019-05-10T15:26:46.145Z,100170.33
2019-05-10T15:29:22.592Z,100180.64
2019-05-10T15:31:54.924Z,100166.34
2019-05-10T15:34:28.448Z,100176.78
2019-05-10T15:37:09.297Z,100169.78
2019-05-10T15:39:38.113Z,100172.42
2019-05-10T15:42:11.590Z,100172.66
2019-05-10T15:44:44.996Z,100170.01
2019-05-10T15:47:20.567Z,100175.53
2019-05-10T15:49:54.568Z,100167.05
2019-05-10T15:52:29.345Z,100167.50
2019-05-10T15:55:02.909Z,100168.16
2019-05-10T15:57:36.305Z,100166.28
2019-05-10T16:00:10.337Z,100165.94
2019-05-10T16:02:43.755Z,100171.96
2019-05-10T16:05:25.855Z,100160.33
2019-05-10T16:07:53.226Z,100166.37
2019-05-10T16:10:28.265Z,100170.14
2019-05-10T16:13:01.813Z,100166.39
2019-05-10T16:15:35.232Z,100163.34
2019-05-10T16:18:08.745Z,100163.94
2019-05-10T16:20:42.371Z,100166.37
2019-05-10T16:23:16.054Z,100173.45
2019-05-10T16:25:49.481Z,100176.13
2019-05-10T16:28:23.072Z,100187.64
2019-05-10T16:30:56.493Z,100178.51
2019-05-10T16:33:30.040Z,100177.81
2019-05-10T16:36:03.508Z,100172.55
2019-05-10T16:38:36.875Z,100179.20
2019-05-10T16:41:10.335Z,100170.30
2019-05-10T16:43:43.760Z,100167.33
2019-05-10T16:46:17.195Z,100167.02
2019-05-10T16:48:50.615Z,100168.05
2019-05-10T16:51:24.013Z,100171.79
2019-05-10T16:53:57.414Z,100163.58
2019-05-10T16:56:31.188Z,100178.41
2019-05-10T16:59:04.677Z,100173.36
2019-05-10T17:01:38.152Z,100169.20
2019-05-10T17:04:12.176Z,100178.34
2019-05-10T17:06:45.618Z,100176.78
2019-05-10T17:09:19.853Z,100174.50
2019-05-10T17:11:53.287Z,100170.17
2019-05-10T17:14:26.763Z,100174.86
2019-05-10T17:17:00.242Z,100180.70
2019-05-10T17:19:35.942Z,100174.42
2019-05-10T17:22:08.795Z,100173.89
2019-05-10T17:24:42.242Z,100175.50
2019-05-10T17:27:15.660Z,100172.42
2019-05-10T17:29:49.738Z,100169.22
2019-05-10T17:32:26.569Z,100163.06
2019-05-10T17:35:04.697Z,100166.02
2019-05-10T17:37:35.688Z,100159.08
2019-05-10T17:40:10.591Z,100153.06
2019-05-10T17:42:45.006Z,100147.30
2019-05-10T17:45:18.962Z,100140.73
2019-05-10T17:47:52.485Z,100145.19
2019-05-10T17:50:25.918Z,100149.78
2019-05-10T17:52:59.380Z,100148.89
2019-05-10T17:55:32.817Z,100147.25
2019-05-10T17:58:06.690Z,100142.97
2019-05-10T18:00:40.210Z,100141.83
2019-05-10T18:03:13.662Z,100143.23
2019-05-10T18:05:52.818Z,100143.23
2019-05-10T18:08:22.185Z,100148.11
2019-05-10T18:10:57.500Z,100147.98
2019-05-10T18:13:35.599Z,100156.55
2019-05-10T18:16:09.485Z,100164.16
2019-05-10T18:18:46.328Z,100152.64
2019-05-10T18:21:22.245Z,100150.09
2019-05-10T18:23:52.614Z,100148.23
2019-05-10T18:26:26.600Z,100141.22
2019-05-10T18:29:00.014Z,100157.44
2019-05-10T18:31:33.532Z,100164.02
2019-05-10T18:34:06.950Z,100174.94
2019-05-10T18:36:55.424Z,100174.94
2019-05-10T18:39:17.722Z,100169.49
2019-05-10T18:41:50.690Z,100175.86
2019-05-10T18:44:24.137Z,100187.80
2019-05-10T18:46:57.567Z,100193.80
2019-05-10T18:49:31.032Z,100191.92
2019-05-10T18:52:06.577Z,100187.78
2019-05-10T18:54:39.597Z,100189.14
2019-05-10T18:57:18.786Z,100201.86
2019-05-10T18:59:48.226Z,100211.80
2019-05-10T19:02:21.714Z,100214.31
2019-05-10T19:04:55.118Z,100212.27
2019-05-10T19:07:28.627Z,100218.58
2019-05-10T19:10:02.035Z,100225.89
2019-05-10T19:12:36.163Z,100217.36
2019-05-10T19:15:15.410Z,100222.97
2019-05-10T19:17:47.025Z,100220.26
2019-05-10T19:20:20.876Z,100216.30
2019-05-10T19:22:54.372Z,100221.58
2019-05-10T19:25:27.766Z,100219.55
2019-05-10T19:28:01.208Z,100222.32
2019-05-10T19:30:34.695Z,100221.87
2019-05-10T19:33:08.141Z,100232.88
2019-05-10T19:35:41.579Z,100235.39
2019-05-10T19:38:14.977Z,100239.86
2019-05-10T19:40:48.436Z,100247.03
2019-05-10T19:43:23.825Z,100246.02
2019-05-10T19:45:58.073Z,100246.30
2019-05-10T19:48:35.253Z,100247.63
2019-05-10T19:51:09.727Z,100251.97
2019-05-10T19:53:44.007Z,100253.26
2019-05-10T19:56:17.583Z,100256.34
2019-05-10T19:58:50.973Z,100258.38
2019-05-10T20:01:24.452Z,100262.88
2019-05-10T20:03:57.836Z,100262.48
2019-05-10T20:06:31.339Z,100260.91
2019-05-10T20:09:06.660Z,100254.14
2019-05-10T20:11:40.070Z,100255.60
2019-05-10T20:14:13.643Z,100245.30
2019-05-10T20:16:52.925Z,100247.24
2019-05-10T20:19:22.217Z,100249.09
2019-05-10T20:21:55.742Z,100239.55
2019-05-10T20:24:29.200Z,100239.03
2019-05-10T20:27:02.668Z,100237.72
2019-05-10T20:29:36.098Z,100230.82
2019-05-10T20:32:09.551Z,100225.22
2019-05-10T20:34:42.956Z,100232.34
2019-05-10T20:37:16.397Z,100231.89
2019-05-10T20:39:49.801Z,100237.89
2019-05-10T20:42:23.234Z,100233.28
2019-05-10T20:45:06.599Z,100235.47
2019-05-10T20:47:31.914Z,100239.93
2019-05-10T20:50:06.453Z,100238.16
2019-05-10T20:52:39.890Z,100237.30
2019-05-10T20:55:13.643Z,100247.03
2019-05-10T20:57:47.061Z,100244.98
2019-05-10T21:00:23.924Z,100240.16
2019-05-10T21:02:55.621Z,100243.19
2019-05-10T21:05:29.037Z,100241.88
2019-05-10T21:08:16.131Z,100238.55
2019-05-10T21:10:37.582Z,100235.55
2019-05-10T21:13:11.001Z,100233.05
2019-05-10T21:15:44.477Z,100237.37
2019-05-10T21:18:17.907Z,100238.06
2019-05-10T21:20:51.324Z,100240.25
2019-05-10T21:23:24.754Z,100238.19
2019-05-10T21:25:58.147Z,100233.63
2019-05-10T21:28:31.615Z,100235.45
2019-05-10T21:31:05.048Z,100234.13
2019-05-10T21:33:38.526Z,100230.69
2019-05-10T21:36:12.039Z,100222.80
2019-05-10T21:38:45.452Z,100229.90
2019-05-10T21:41:18.847Z,100229.20
2019-05-10T21:43:52.270Z,100225.84
2019-05-10T21:46:25.698Z,100221.02
2019-05-10T21:48:59.312Z,100212.62
2019-05-10T21:51:32.712Z,100214.52
2019-05-10T21:54:06.136Z,100211.95
2019-05-10T21:56:39.613Z,100204.94
2019-05-10T21:59:13.060Z,100207.94
2019-05-10T22:01:46.524Z,100209.34
2019-05-10T22:04:19.958Z,100210.34
2019-05-10T22:06:53.353Z,100205.19
2019-05-10T22:09:26.924Z,100195.66
2019-05-10T22:12:00.395Z,100194.38
2019-05-10T22:14:33.786Z,100187.53
2019-05-10T22:17:07.196Z,100178.23
2019-05-10T22:19:40.651Z,100178.11
2019-05-10T22:22:14.223Z,100172.90
2019-05-10T22:24:47.661Z,100166.45
2019-05-10T22:27:21.076Z,100158.55
2019-05-10T22:29:54.496Z,100156.55
2019-05-10T22:32:27.913Z,100150.53
2019-05-10T22:35:01.422Z,100146.84
2019-05-10T22:37:34.830Z,100148.97
2019-05-10T22:40:08.320Z,100141.83
2019-05-10T22:42:41.743Z,100140.14
2019-05-10T22:45:15.308Z,100132.44
2019-05-10T22:47:48.712Z,100121.98
2019-05-10T22:50:22.126Z,100123.80
2019-05-10T22:52:55.521Z,100122.05
2019-05-10T22:55:28.984Z,100106.00
2019-05-10T22:58:02.409Z,100107.93
2019-05-10T23:00:36.120Z,100106.80
2019-05-10T23:03:09.502Z,100105.48
2019-05-10T23:05:42.922Z,100105.48
2019-05-10T23:08:16.345Z,100112.17
2019-05-10T23:10:49.739Z,100110.36
2019-05-10T23:13:23.243Z,100114.38
2019-05-10T23:15:56.661Z,100115.25
2019-05-10T23:18:30.087Z,100113.80
2019-05-10T23:21:03.489Z,100107.48
2019-05-10T23:23:36.924Z,100100.47
2019-05-10T23:26:10.311Z,100110.06
2019-05-10T23:28:43.732Z,100112.30
2019-05-10T23:31:17.133Z,100106.12
2019-05-10T23:33:50.555Z,100107.67
2019-05-10T23:36:23.964Z,100099.47
2019-05-10T23:38:57.399Z,100100.34
2019-05-10T23:41:30.796Z,100103.36
2019-05-10T23:44:04.280Z,100102.55
2019-05-10T23:46:37.694Z,100092.63
2019-05-10T23:49:11.116Z,100091.83
2019-05-10T23:51:44.554Z,100084.39
2019-05-10T23:54:17.968Z,100090.88
2019-05-10T23:56:51.376Z,100093.09
2019-05-10T23:59:24.802Z,100085.44
